createdAt,value
2022-08-09T00:01:55.380Z,51.07
2022-08-09T00:04:33.898Z,50.67
2022-08-09T00:07:04.093Z,50.67
2022-08-09T00:09:38.756Z,50.53
2022-08-09T00:12:07.646Z,51.00
2022-08-09T00:14:38.544Z,50.67
2022-08-09T00:17:07.492Z,50.17
2022-08-09T00:19:36.392Z,50.83
2022-08-09T00:22:05.234Z,50.37
2022-08-09T00:24:33.556Z,50.00
2022-08-09T00:27:02.053Z,50.03
2022-08-09T00:30:10.090Z,50.10
2022-08-09T00:32:26.548Z,50.37
2022-08-09T00:34:56.019Z,49.93
2022-08-09T00:37:24.147Z,50.17
2022-08-09T00:40:13.334Z,49.90
2022-08-09T00:44:13.225Z,50.20
2022-08-09T00:45:28.393Z,50.13
2022-08-09T00:47:57.783Z,50.40
2022-08-09T00:50:27.359Z,50.30
2022-08-09T00:52:55.290Z,50.27
2022-08-09T00:56:03.211Z,50.33
2022-08-09T00:58:14.640Z,49.97
2022-08-09T01:00:44.915Z,49.57
2022-08-09T01:03:23.251Z,50.27
2022-08-09T01:06:17.435Z,49.90
2022-08-09T01:08:55.654Z,50.03
2022-08-09T01:11:32.416Z,49.90
2022-08-09T01:14:04.796Z,49.77
2022-08-09T01:16:37.672Z,50.00
2022-08-09T01:19:42.769Z,50.03
2022-08-09T01:22:58.419Z,50.03
2022-08-09T01:25:52.789Z,49.77
2022-08-09T01:28:26.036Z,49.80
2022-08-09T01:30:59.009Z,49.60
2022-08-09T01:33:29.667Z,49.77
2022-08-09T01:36:03.880Z,49.77
2022-08-09T01:38:39.878Z,49.70
2022-08-09T01:41:15.929Z,49.77
2022-08-09T01:43:51.580Z,49.40
2022-08-09T01:46:24.901Z,49.47
2022-08-09T01:48:56.605Z,49.60
2022-08-09T01:51:26.685Z,49.77
2022-08-09T01:53:57.979Z,49.57
2022-08-09T01:56:27.558Z,49.40
2022-08-09T01:58:58.575Z,49.47
2022-08-09T02:01:57.737Z,49.63
2022-08-09T02:04:17.603Z,49.50
2022-08-09T02:07:03.993Z,49.60
2022-08-09T02:09:41.927Z,49.07
2022-08-09T02:12:13.551Z,49.37
2022-08-09T02:14:51.978Z,49.33
2022-08-09T02:17:59.318Z,49.17
2022-08-09T02:20:11.002Z,49.10
2022-08-09T02:22:46.431Z,48.80
2022-08-09T02:25:30.310Z,49.17
2022-08-09T02:28:05.145Z,49.27
2022-08-09T02:30:38.279Z,49.03
2022-08-09T02:33:14.377Z,49.03
2022-08-09T02:36:02.632Z,49.20
2022-08-09T02:38:37.058Z,49.00
2022-08-09T02:41:15.323Z,49.47
2022-08-09T02:43:54.285Z,49.23
2022-08-09T02:46:27.458Z,48.97
2022-08-09T02:48:59.862Z,48.97
2022-08-09T02:51:37.229Z,49.23
2022-08-09T02:54:12.330Z,48.97
2022-08-09T02:56:43.862Z,48.87
2022-08-09T02:59:26.323Z,49.10
2022-08-09T03:02:09.708Z,48.90
2022-08-09T03:04:41.647Z,49.17
2022-08-09T03:07:12.442Z,49.40
2022-08-09T03:09:56.574Z,49.13
2022-08-09T03:12:29.725Z,49.27
2022-08-09T03:14:58.218Z,49.10
2022-08-09T03:17:28.588Z,49.47
2022-08-09T03:20:03.041Z,49.53
2022-08-09T03:22:41.909Z,49.13
2022-08-09T03:25:26.798Z,49.87
2022-08-09T03:28:02.457Z,49.30
2022-08-09T03:30:33.341Z,49.47
2022-08-09T03:33:17.615Z,49.47
2022-08-09T03:36:15.498Z,49.43
2022-08-09T03:38:41.893Z,49.37
2022-08-09T03:41:15.348Z,48.87
2022-08-09T03:44:03.265Z,49.43
2022-08-09T03:46:33.621Z,49.50
2022-08-09T03:49:08.180Z,49.93
2022-08-09T03:51:55.340Z,49.30
2022-08-09T03:54:31.221Z,49.53
2022-08-09T03:57:02.157Z,49.50
2022-08-09T03:59:53.251Z,49.27
2022-08-09T04:02:26.530Z,48.80
2022-08-09T04:04:58.715Z,48.80
2022-08-09T04:07:33.643Z,49.27
2022-08-09T04:10:15.409Z,48.73
2022-08-09T04:12:50.071Z,49.43
2022-08-09T04:15:38.875Z,49.27
2022-08-09T04:18:08.499Z,48.80
2022-08-09T04:20:37.648Z,49.03
2022-08-09T04:23:09.713Z,48.70
2022-08-09T04:25:38.279Z,49.03
2022-08-09T04:28:06.962Z,49.00
2022-08-09T04:30:34.912Z,49.23
2022-08-09T04:33:02.875Z,48.83
2022-08-09T04:35:32.801Z,49.07
2022-08-09T04:38:03.542Z,48.97
2022-08-09T04:40:45.776Z,48.83
2022-08-09T04:43:14.140Z,48.37
2022-08-09T04:45:53.746Z,48.83
2022-08-09T04:48:23.905Z,48.97
2022-08-09T04:51:01.691Z,49.03
2022-08-09T04:53:31.529Z,49.27
2022-08-09T04:55:59.961Z,48.70
2022-08-09T04:58:29.831Z,48.93
2022-08-09T05:00:59.688Z,49.00
2022-08-09T05:03:40.590Z,49.17
2022-08-09T05:06:12.027Z,48.70
2022-08-09T05:08:59.871Z,49.53
2022-08-09T05:11:32.359Z,49.20
2022-08-09T05:14:05.785Z,49.17
2022-08-09T05:16:58.051Z,49.37
2022-08-09T05:19:25.800Z,49.33
2022-08-09T05:21:55.493Z,49.13
2022-08-09T05:24:25.713Z,49.13
2022-08-09T05:26:54.479Z,49.40
2022-08-09T05:29:24.080Z,49.30
2022-08-09T05:32:00.924Z,49.60
2022-08-09T05:34:30.983Z,49.10
2022-08-09T05:37:02.458Z,49.20
2022-08-09T05:39:42.625Z,49.27
2022-08-09T05:42:17.912Z,49.33
2022-08-09T05:44:51.742Z,48.93
2022-08-09T05:47:21.769Z,49.67
2022-08-09T05:50:29.979Z,49.50
2022-08-09T05:52:39.359Z,49.57
2022-08-09T05:55:12.885Z,49.90
2022-08-09T05:57:51.220Z,49.77
2022-08-09T06:00:25.967Z,49.97
2022-08-09T06:02:56.983Z,49.90
2022-08-09T06:05:50.087Z,49.80
2022-08-09T06:08:13.432Z,50.37
2022-08-09T06:10:48.354Z,50.00
2022-08-09T06:13:20.313Z,50.23
2022-08-09T06:15:51.321Z,49.73
2022-08-09T06:18:25.458Z,50.03
2022-08-09T06:20:56.982Z,50.47
2022-08-09T06:23:55.093Z,50.37
2022-08-09T06:26:20.885Z,50.30
2022-08-09T06:28:50.073Z,50.67
2022-08-09T06:31:30.660Z,51.00
2022-08-09T06:33:59.870Z,51.03
2022-08-09T06:36:29.767Z,50.70
2022-08-09T06:38:58.400Z,50.93
2022-08-09T06:42:01.241Z,51.47
2022-08-09T06:44:18.233Z,51.07
2022-08-09T06:46:48.078Z,50.17
2022-08-09T06:49:29.378Z,51.77
2022-08-09T06:52:06.352Z,50.87
2022-08-09T06:54:35.779Z,51.10
2022-08-09T06:57:05.011Z,51.07
2022-08-09T07:00:54.635Z,51.27
2022-08-09T07:02:30.810Z,51.00
2022-08-09T07:04:59.817Z,51.43
2022-08-09T07:08:00.932Z,51.20
2022-08-09T07:10:22.643Z,51.43
2022-08-09T07:12:59.264Z,51.40
2022-08-09T07:16:34.945Z,51.93
2022-08-09T07:18:15.303Z,51.83
2022-08-09T07:20:47.705Z,51.40
2022-08-09T07:23:19.000Z,51.87
2022-08-09T07:25:47.825Z,51.37
2022-08-09T07:28:28.115Z,51.53
2022-08-09T07:30:56.298Z,52.00
2022-08-09T07:33:24.284Z,51.47
2022-08-09T07:35:53.877Z,52.10
2022-08-09T07:38:23.669Z,52.50
2022-08-09T07:41:08.050Z,52.10
2022-08-09T07:43:41.290Z,52.27
2022-08-09T07:46:19.432Z,52.43
2022-08-09T07:48:58.756Z,51.97
2022-08-09T07:52:04.895Z,52.40
2022-08-09T07:54:19.172Z,51.97
2022-08-09T07:56:58.632Z,52.93
2022-08-09T07:59:34.370Z,53.13
2022-08-09T08:02:19.629Z,53.23
2022-08-09T08:04:48.857Z,53.60
2022-08-09T08:08:44.413Z,54.53
2022-08-09T08:10:08.840Z,53.80
2022-08-09T08:12:42.568Z,55.60
2022-08-09T08:15:14.121Z,56.33
2022-08-09T08:17:53.476Z,56.40
2022-08-09T08:20:28.809Z,56.70
2022-08-09T08:23:03.804Z,57.10
2022-08-09T08:25:46.619Z,57.00
2022-08-09T08:28:17.951Z,57.77
2022-08-09T08:30:55.255Z,58.20
2022-08-09T08:33:24.737Z,57.77
2022-08-09T08:35:58.916Z,59.30
2022-08-09T08:38:28.211Z,59.00
2022-08-09T08:40:57.256Z,59.40
2022-08-09T08:43:27.344Z,59.10
2022-08-09T08:46:09.908Z,59.60
2022-08-09T08:48:53.575Z,60.47
2022-08-09T08:51:22.842Z,59.70
2022-08-09T08:54:03.176Z,59.90
2022-08-09T08:56:33.743Z,59.90
2022-08-09T08:59:08.008Z,59.50
2022-08-09T09:01:52.874Z,59.60
2022-08-09T09:04:26.841Z,59.53
2022-08-09T09:06:58.249Z,59.43
2022-08-09T09:10:01.877Z,59.80
2022-08-09T09:12:17.343Z,60.17
2022-08-09T09:14:46.484Z,60.37
2022-08-09T09:17:16.778Z,60.50
2022-08-09T09:19:45.119Z,59.37
2022-08-09T09:22:16.147Z,60.07
2022-08-09T09:24:45.885Z,58.97
2022-08-09T09:28:04.228Z,58.80
2022-08-09T09:30:27.495Z,59.37
2022-08-09T09:33:15.283Z,58.03
2022-08-09T09:36:01.538Z,58.30
2022-08-09T09:38:42.182Z,60.60
2022-08-09T09:41:11.142Z,59.27
2022-08-09T09:43:41.471Z,58.77
2022-08-09T09:46:50.440Z,59.60
2022-08-09T09:49:32.157Z,59.17
2022-08-09T09:52:16.736Z,57.93
2022-08-09T09:55:16.778Z,57.97
2022-08-09T09:58:16.210Z,58.10
2022-08-09T10:00:55.205Z,56.23
2022-08-09T10:03:44.665Z,55.30
2022-08-09T10:06:26.037Z,58.07
2022-08-09T10:09:02.714Z,56.70
2022-08-09T10:11:59.415Z,56.97
2022-08-09T10:14:31.003Z,57.27
2022-08-09T10:17:40.276Z,57.57
2022-08-09T10:19:59.833Z,57.57
2022-08-09T10:22:37.315Z,58.37
2022-08-09T10:25:11.849Z,58.50
2022-08-09T10:27:45.306Z,57.90
2022-08-09T10:34:07.879Z,58.10
2022-08-09T10:36:02.171Z,58.37
2022-08-09T10:38:54.800Z,58.30
2022-08-09T10:41:20.536Z,59.00
2022-08-09T10:43:58.634Z,58.70
2022-08-09T10:47:00.876Z,58.40
2022-08-09T10:49:49.712Z,58.80
2022-08-09T10:52:36.490Z,58.53
2022-08-09T10:55:24.986Z,59.20
2022-08-09T10:57:55.922Z,58.17
2022-08-09T11:00:41.836Z,58.20
2022-08-09T11:03:50.024Z,57.90
2022-08-09T11:06:24.172Z,57.70
2022-08-09T11:08:53.417Z,57.60
2022-08-09T11:11:23.983Z,57.67
2022-08-09T11:14:28.180Z,57.53
2022-08-09T11:16:57.226Z,58.20
2022-08-09T11:20:10.636Z,58.50
2022-08-09T11:23:07.122Z,58.90
2022-08-09T11:25:55.596Z,58.90
2022-08-09T11:28:54.033Z,58.23
2022-08-09T11:31:49.413Z,58.40
2022-08-09T11:34:31.423Z,58.13
2022-08-09T11:37:01.039Z,58.27
2022-08-09T11:39:33.599Z,58.00
2022-08-09T11:42:14.619Z,57.97
2022-08-09T11:44:49.033Z,58.13
2022-08-09T11:47:17.009Z,58.30
2022-08-09T11:50:54.130Z,58.63
2022-08-09T11:53:57.671Z,58.50
2022-08-09T11:56:41.454Z,57.60
2022-08-09T11:59:11.634Z,57.93
2022-08-09T12:02:17.154Z,57.20
2022-08-09T12:04:37.238Z,58.43
2022-08-09T12:07:07.941Z,60.17
2022-08-09T12:09:37.331Z,59.70
2022-08-09T12:12:12.938Z,59.57
2022-08-09T12:15:07.281Z,58.97
2022-08-09T12:17:45.737Z,59.93
2022-08-09T12:20:21.812Z,59.97
2022-08-09T12:22:53.050Z,59.90
2022-08-09T12:25:35.969Z,60.20
2022-08-09T12:29:14.624Z,60.20
2022-08-09T12:30:58.540Z,60.30
2022-08-09T12:33:35.412Z,60.80
2022-08-09T12:36:27.478Z,59.63
2022-08-09T12:39:00.820Z,60.80
2022-08-09T12:41:36.275Z,60.23
2022-08-09T12:44:09.778Z,60.27
2022-08-09T12:46:40.171Z,60.17
2022-08-09T12:49:10.275Z,60.73
2022-08-09T12:52:00.582Z,59.27
2022-08-09T12:54:26.533Z,60.50
2022-08-09T12:56:54.711Z,58.97
2022-08-09T12:59:24.441Z,63.10
2022-08-09T13:02:09.614Z,57.60
2022-08-09T13:04:39.896Z,57.73
2022-08-09T13:07:13.415Z,58.00
2022-08-09T13:09:43.338Z,58.20
2022-08-09T13:12:22.225Z,57.70
2022-08-09T13:14:54.169Z,57.30
2022-08-09T13:18:03.365Z,58.30
2022-08-09T13:20:18.947Z,56.77
2022-08-09T13:23:02.096Z,58.27
2022-08-09T13:25:42.298Z,56.90
2022-08-09T13:28:18.811Z,57.57
2022-08-09T13:32:17.994Z,58.47
2022-08-09T13:33:54.406Z,57.93
2022-08-09T13:36:40.657Z,57.90
2022-08-09T13:41:51.427Z,58.50
2022-08-09T13:42:03.062Z,59.00
2022-08-09T13:44:32.479Z,58.47
2022-08-09T13:47:17.748Z,57.87
2022-08-09T13:49:56.459Z,58.40
2022-08-09T13:52:27.292Z,59.10
2022-08-09T13:54:59.737Z,56.87
2022-08-09T13:57:35.478Z,56.93
2022-08-09T14:00:08.077Z,57.13
2022-08-09T14:02:42.906Z,57.73
2022-08-09T14:05:59.081Z,56.03
2022-08-09T14:08:17.635Z,57.03
2022-08-09T14:10:50.276Z,56.37
2022-08-09T14:13:21.835Z,57.77
2022-08-09T14:16:10.466Z,55.27
2022-08-09T14:18:39.160Z,56.80
2022-08-09T14:21:17.466Z,56.40
2022-08-09T14:23:54.189Z,56.70
2022-08-09T14:26:30.576Z,58.17
2022-08-09T14:29:03.622Z,58.60
2022-08-09T14:31:49.552Z,58.17
2022-08-09T14:34:32.366Z,57.07
2022-08-09T14:37:02.742Z,58.50
2022-08-09T14:39:45.355Z,57.50
2022-08-09T14:42:30.565Z,57.97
2022-08-09T14:46:39.588Z,58.40
2022-08-09T14:47:57.146Z,58.40
2022-08-09T14:50:25.747Z,57.80
2022-08-09T14:52:54.933Z,57.47
2022-08-09T14:55:24.160Z,57.43
2022-08-09T14:57:52.736Z,57.50
2022-08-09T15:00:22.481Z,56.73
2022-08-09T15:02:51.806Z,57.10
2022-08-09T15:05:20.307Z,56.33
2022-08-09T15:07:56.565Z,57.33
2022-08-09T15:10:27.816Z,56.73
2022-08-09T15:12:56.045Z,57.30
2022-08-09T15:15:24.615Z,57.50
2022-08-09T15:17:56.982Z,58.07
2022-08-09T15:22:01.100Z,56.83
2022-08-09T15:24:01.343Z,57.53
2022-08-09T15:26:05.169Z,57.80
2022-08-09T15:28:37.088Z,57.80
2022-08-09T15:31:17.483Z,56.90
2022-08-09T15:34:17.126Z,57.93
2022-08-09T15:36:34.532Z,57.70
2022-08-09T15:39:02.386Z,58.30
2022-08-09T15:41:32.671Z,57.97
2022-08-09T15:44:01.776Z,58.20
2022-08-09T15:46:32.366Z,56.57
2022-08-09T15:49:21.815Z,58.20
2022-08-09T15:52:04.646Z,57.10
2022-08-09T15:54:44.624Z,57.03
2022-08-09T15:57:34.492Z,56.80
2022-08-09T16:00:07.435Z,57.70
2022-08-09T16:02:35.891Z,57.20
2022-08-09T16:05:06.739Z,56.20
2022-08-09T16:07:39.057Z,57.03
2022-08-09T16:10:11.049Z,56.93
2022-08-09T16:12:50.234Z,56.90
2022-08-09T16:16:10.202Z,57.67
2022-08-09T16:18:09.517Z,56.73
2022-08-09T16:20:38.367Z,57.00
2022-08-09T16:23:10.225Z,57.10
2022-08-09T16:25:40.314Z,57.77
2022-08-09T16:28:12.089Z,56.80
2022-08-09T16:30:44.578Z,57.57
2022-08-09T16:33:15.743Z,57.07
2022-08-09T16:35:57.980Z,56.47
2022-08-09T16:38:27.992Z,57.00
2022-08-09T16:40:57.958Z,57.80
2022-08-09T16:43:27.550Z,57.30
2022-08-09T16:45:55.535Z,56.20
2022-08-09T16:48:40.919Z,57.07
2022-08-09T16:51:13.890Z,56.77
2022-08-09T16:54:02.517Z,57.63
2022-08-09T16:56:31.012Z,56.40
2022-08-09T16:59:06.497Z,56.50
2022-08-09T17:01:38.815Z,57.37
2022-08-09T17:04:06.949Z,57.40
2022-08-09T17:08:41.174Z,57.10
2022-08-09T17:09:45.784Z,57.10
2022-08-09T17:12:11.271Z,56.70
2022-08-09T17:14:47.842Z,57.13
2022-08-09T17:17:27.157Z,56.40
2022-08-09T17:20:29.893Z,56.30
2022-08-09T17:23:10.510Z,57.33
2022-08-09T17:25:43.204Z,56.83
2022-08-09T17:28:11.117Z,56.60
2022-08-09T17:30:47.931Z,56.70
2022-08-09T17:33:22.221Z,56.60
2022-08-09T17:35:51.199Z,56.67
2022-08-09T17:38:32.386Z,57.40
2022-08-09T17:41:03.323Z,56.70
2022-08-09T17:43:36.975Z,57.03
2022-08-09T17:46:09.081Z,56.60
2022-08-09T17:48:52.232Z,57.17
2022-08-09T17:51:21.671Z,56.20
2022-08-09T17:53:52.364Z,57.20
2022-08-09T17:56:27.680Z,56.73
2022-08-09T17:58:58.225Z,57.23
2022-08-09T18:02:03.654Z,56.10
2022-08-09T18:04:15.879Z,56.83
2022-08-09T18:06:54.065Z,56.47
2022-08-09T18:09:24.740Z,56.63
2022-08-09T18:12:10.199Z,56.70
2022-08-09T18:14:49.709Z,56.27
2022-08-09T18:17:27.464Z,55.77
2022-08-09T18:21:00.487Z,56.27
2022-08-09T18:23:04.857Z,56.60
2022-08-09T18:25:50.914Z,56.73
2022-08-09T18:30:41.570Z,56.43
2022-08-09T18:31:10.039Z,55.13
2022-08-09T18:33:40.303Z,56.77
2022-08-09T18:36:14.374Z,56.27
2022-08-09T18:38:57.560Z,56.00
2022-08-09T18:41:28.741Z,55.23
2022-08-09T18:43:57.375Z,56.03
2022-08-09T18:46:47.908Z,55.80
2022-08-09T18:49:14.789Z,56.27
2022-08-09T18:51:55.106Z,56.17
2022-08-09T18:54:28.505Z,56.27
2022-08-09T18:57:05.741Z,56.27
2022-08-09T18:59:37.594Z,55.13
2022-08-09T19:02:16.337Z,55.90
2022-08-09T19:04:47.895Z,55.53
2022-08-09T19:07:32.787Z,55.50
2022-08-09T19:10:16.974Z,55.40
2022-08-09T19:12:50.844Z,55.10
2022-08-09T19:15:24.602Z,54.83
2022-08-09T19:17:55.167Z,54.50
2022-08-09T19:20:26.252Z,55.53
2022-08-09T19:23:02.519Z,55.47
2022-08-09T19:26:00.938Z,54.47
2022-08-09T19:28:21.418Z,54.63
2022-08-09T19:30:49.243Z,54.47
2022-08-09T19:33:24.542Z,54.80
2022-08-09T19:35:57.834Z,55.30
2022-08-09T19:38:27.999Z,53.97
2022-08-09T19:40:57.565Z,54.70
2022-08-09T19:43:58.187Z,55.07
2022-08-09T19:46:15.859Z,54.63
2022-08-09T19:49:00.452Z,55.13
2022-08-09T19:51:31.352Z,54.80
2022-08-09T19:53:59.505Z,54.30
2022-08-09T19:56:28.529Z,54.37
2022-08-09T19:59:39.393Z,54.83
2022-08-09T20:01:52.555Z,54.07
2022-08-09T20:04:37.361Z,54.30
2022-08-09T20:07:12.378Z,54.17
2022-08-09T20:09:49.106Z,54.23
2022-08-09T20:12:27.481Z,53.83
2022-08-09T20:16:31.805Z,54.30
2022-08-09T20:17:54.702Z,54.43
2022-08-09T20:20:24.752Z,54.53
2022-08-09T20:22:56.744Z,53.07
2022-08-09T20:25:25.253Z,54.40
2022-08-09T20:27:53.509Z,53.63
2022-08-09T20:30:24.141Z,54.20
2022-08-09T20:32:53.582Z,53.80
2022-08-09T20:35:21.721Z,54.40
2022-08-09T20:38:22.043Z,53.57
2022-08-09T20:40:41.123Z,53.23
2022-08-09T20:43:18.446Z,53.57
2022-08-09T20:46:00.567Z,53.37
2022-08-09T20:48:31.838Z,53.90
2022-08-09T20:51:00.278Z,53.80
2022-08-09T20:53:36.347Z,53.77
2022-08-09T20:56:09.324Z,53.97
2022-08-09T20:58:48.577Z,53.57
2022-08-09T21:01:35.466Z,53.10
2022-08-09T21:05:49.640Z,53.03
2022-08-09T21:06:53.435Z,53.03
2022-08-09T21:09:25.011Z,53.40
2022-08-09T21:14:42.000Z,53.33
2022-08-09T21:18:20.757Z,54.00
2022-08-09T21:20:16.088Z,53.33
2022-08-09T21:22:52.434Z,53.67
2022-08-09T21:25:39.589Z,53.60
2022-08-09T21:28:15.758Z,53.40
2022-08-09T21:30:44.247Z,53.37
2022-08-09T21:33:12.986Z,53.13
2022-08-09T21:35:51.128Z,53.73
2022-08-09T21:38:31.238Z,53.23
2022-08-09T21:40:59.952Z,53.00
2022-08-09T21:43:46.697Z,52.77
2022-08-09T21:46:17.292Z,53.30
2022-08-09T21:48:49.086Z,53.20
2022-08-09T21:51:23.961Z,53.33
2022-08-09T21:53:54.748Z,52.93
2022-08-09T21:56:42.887Z,52.60
2022-08-09T21:59:16.101Z,52.73
2022-08-09T22:02:00.864Z,52.77
2022-08-09T22:04:55.375Z,52.87
2022-08-09T22:07:35.256Z,52.90
2022-08-09T22:10:08.204Z,53.17
2022-08-09T22:12:38.758Z,53.60
2022-08-09T22:15:16.905Z,52.93
2022-08-09T22:17:46.126Z,52.30
2022-08-09T22:20:21.491Z,52.77
2022-08-09T22:22:50.577Z,52.93
2022-08-09T22:26:06.971Z,52.67
2022-08-09T22:28:07.140Z,52.83
2022-08-09T22:30:36.837Z,53.67
2022-08-09T22:33:09.654Z,52.63
2022-08-09T22:36:02.760Z,52.63
2022-08-09T22:38:26.335Z,52.57
2022-08-09T22:40:57.414Z,52.70
2022-08-09T22:44:03.430Z,52.77
2022-08-09T22:48:12.250Z,51.60
2022-08-09T22:49:10.040Z,52.63
2022-08-09T22:51:39.458Z,52.60
2022-08-09T22:54:12.310Z,52.57
2022-08-09T22:56:41.743Z,52.20
2022-08-09T22:59:55.795Z,52.33
2022-08-09T23:01:59.224Z,52.27
2022-08-09T23:04:32.819Z,52.03
2022-08-09T23:07:18.601Z,52.07
2022-08-09T23:10:07.003Z,51.73
2022-08-09T23:12:34.809Z,52.40
2022-08-09T23:15:02.657Z,52.27
2022-08-09T23:17:32.228Z,52.53
2022-08-09T23:20:07.040Z,52.30
2022-08-09T23:22:36.112Z,51.87
2022-08-09T23:25:04.783Z,52.17
2022-08-09T23:27:33.327Z,52.03
2022-08-09T23:30:01.322Z,52.17
2022-08-09T23:32:29.217Z,51.80
2022-08-09T23:34:58.412Z,52.17
2022-08-09T23:37:26.365Z,52.23
2022-08-09T23:39:54.240Z,52.23
2022-08-09T23:42:22.038Z,52.13
2022-08-09T23:44:49.874Z,51.77
2022-08-09T23:47:17.848Z,52.23
2022-08-09T23:49:45.644Z,52.03
2022-08-09T23:52:14.815Z,51.67
2022-08-09T23:54:44.431Z,51.73
2022-08-09T23:57:13.373Z,51.70
